createdAt,value
2023-03-31T00:02:13.720Z,14.90
2023-03-31T00:04:52.584Z,14.90
2023-03-31T00:07:23.493Z,14.80
2023-03-31T00:10:03.605Z,14.70
2023-03-31T00:12:33.915Z,14.70
2023-03-31T00:15:00.757Z,14.60
2023-03-31T00:17:27.444Z,14.90
2023-03-31T00:20:00.393Z,14.60
2023-03-31T00:22:27.754Z,14.60
2023-03-31T00:24:54.604Z,14.60
2023-03-31T00:27:21.386Z,14.70
2023-03-31T00:29:50.739Z,14.60
2023-03-31T00:32:17.575Z,14.70
2023-03-31T00:34:46.205Z,14.70
2023-03-31T00:37:14.832Z,14.70
2023-03-31T00:39:42.198Z,14.70
2023-03-31T00:42:14.989Z,14.60
2023-03-31T00:45:18.847Z,14.80
2023-03-31T00:47:51.437Z,14.70
2023-03-31T00:50:26.016Z,14.70
2023-03-31T00:53:00.956Z,14.70
2023-03-31T00:55:34.465Z,14.60
2023-03-31T00:58:03.322Z,14.60
2023-03-31T01:00:30.233Z,14.80
2023-03-31T01:03:02.228Z,14.60
2023-03-31T01:06:10.369Z,14.80
2023-03-31T01:08:38.356Z,14.70
2023-03-31T01:11:07.609Z,14.60
2023-03-31T01:13:37.120Z,14.50
2023-03-31T01:16:04.146Z,14.50
2023-03-31T01:18:34.827Z,14.50
2023-03-31T01:21:33.927Z,14.40
2023-03-31T01:24:25.286Z,14.50
2023-03-31T01:27:13.874Z,14.50
2023-03-31T01:30:09.258Z,14.50
2023-03-31T01:32:48.306Z,14.50
2023-03-31T01:35:39.829Z,14.50
2023-03-31T01:38:51.433Z,14.20
2023-03-31T01:41:18.768Z,14.40
2023-03-31T01:43:53.261Z,14.40
2023-03-31T01:46:19.900Z,14.80
2023-03-31T01:48:55.013Z,14.50
2023-03-31T01:52:08.525Z,14.30
2023-03-31T01:54:52.573Z,14.50
2023-03-31T01:57:35.924Z,14.40
2023-03-31T02:00:05.649Z,14.70
2023-03-31T02:02:38.531Z,14.60
2023-03-31T02:05:13.492Z,14.50
2023-03-31T02:07:46.253Z,14.60
2023-03-31T02:10:14.927Z,14.60
2023-03-31T02:12:44.584Z,14.50
2023-03-31T02:15:16.037Z,14.40
2023-03-31T02:17:46.026Z,14.40
2023-03-31T02:20:15.963Z,14.70
2023-03-31T02:22:47.913Z,14.50
2023-03-31T02:25:19.251Z,14.40
2023-03-31T02:27:54.782Z,14.50
2023-03-31T02:30:21.733Z,14.40
2023-03-31T02:32:48.480Z,14.30
2023-03-31T02:35:17.987Z,14.20
2023-03-31T02:37:46.459Z,14.30
2023-03-31T02:40:19.258Z,14.20
2023-03-31T02:42:46.457Z,14.30
2023-03-31T02:45:51.310Z,14.30
2023-03-31T02:48:26.669Z,14.40
2023-03-31T02:51:02.272Z,14.30
2023-03-31T02:53:57.972Z,14.00
2023-03-31T02:57:01.816Z,14.00
2023-03-31T02:59:50.172Z,14.20
2023-03-31T03:02:37.194Z,14.10
2023-03-31T03:05:20.164Z,14.20
2023-03-31T03:07:50.977Z,14.30
2023-03-31T03:10:21.148Z,14.30
2023-03-31T03:13:38.182Z,14.10
2023-03-31T03:16:19.205Z,14.20
2023-03-31T03:19:03.157Z,14.20
2023-03-31T03:21:30.496Z,14.50
2023-03-31T03:23:57.795Z,14.20
2023-03-31T03:26:27.991Z,14.10
2023-03-31T03:28:56.655Z,14.10
2023-03-31T03:31:25.950Z,14.40
2023-03-31T03:33:53.647Z,14.30
2023-03-31T03:36:20.915Z,14.20
2023-03-31T03:38:47.636Z,14.20
2023-03-31T03:41:14.353Z,14.20
2023-03-31T03:43:41.078Z,14.30
2023-03-31T03:46:08.064Z,14.00
2023-03-31T03:48:35.197Z,14.10
2023-03-31T03:51:02.313Z,14.10
2023-03-31T03:53:29.319Z,14.10
2023-03-31T03:55:56.165Z,14.10
2023-03-31T03:58:22.994Z,14.00
2023-03-31T04:00:49.653Z,13.90
2023-03-31T04:03:16.709Z,14.20
2023-03-31T04:05:43.637Z,14.10
2023-03-31T04:08:10.594Z,14.30
2023-03-31T04:10:37.332Z,14.00
2023-03-31T04:13:04.111Z,14.20
2023-03-31T04:15:31.019Z,14.20
2023-03-31T04:17:58.328Z,14.10
2023-03-31T04:20:27.971Z,14.50
2023-03-31T04:22:54.887Z,14.50
2023-03-31T04:25:22.768Z,14.20
2023-03-31T04:27:56.062Z,14.30
2023-03-31T04:30:24.684Z,14.20
2023-03-31T04:33:02.750Z,14.30
2023-03-31T04:35:49.824Z,14.30
2023-03-31T04:38:24.043Z,14.30
2023-03-31T04:40:52.607Z,14.20
2023-03-31T04:43:20.976Z,14.30
2023-03-31T04:45:47.749Z,14.10
2023-03-31T04:48:14.438Z,14.10
2023-03-31T04:50:41.218Z,13.90
2023-03-31T04:53:08.540Z,14.20
2023-03-31T04:55:35.438Z,14.00
2023-03-31T04:58:02.226Z,13.90
2023-03-31T05:00:29.982Z,14.00
2023-03-31T05:02:57.177Z,14.00
2023-03-31T05:05:24.070Z,13.90
2023-03-31T05:07:50.830Z,14.00
2023-03-31T05:10:17.726Z,13.80
2023-03-31T05:12:44.740Z,13.80
2023-03-31T05:15:11.717Z,13.90
2023-03-31T05:17:38.436Z,13.80
2023-03-31T05:20:09.514Z,13.80
2023-03-31T05:22:38.068Z,13.90
2023-03-31T05:25:07.577Z,13.80
2023-03-31T05:27:35.704Z,13.90
2023-03-31T05:30:03.787Z,13.60
2023-03-31T05:32:30.548Z,13.70
2023-03-31T05:34:57.851Z,13.90
2023-03-31T05:37:25.985Z,13.80
2023-03-31T05:39:53.267Z,13.70
2023-03-31T05:42:21.149Z,13.90
2023-03-31T05:44:47.876Z,13.70
2023-03-31T05:47:15.127Z,13.80
2023-03-31T05:49:42.197Z,13.80
2023-03-31T05:52:09.640Z,13.90
2023-03-31T05:54:36.387Z,14.00
2023-03-31T05:57:03.693Z,13.70
2023-03-31T05:59:30.807Z,13.70
2023-03-31T06:01:58.432Z,13.70
2023-03-31T06:04:25.499Z,13.70
2023-03-31T06:06:54.021Z,13.70
2023-03-31T06:09:21.226Z,13.80
2023-03-31T06:11:50.434Z,13.70
2023-03-31T06:14:17.628Z,13.70
2023-03-31T06:16:44.457Z,13.90
2023-03-31T06:19:11.153Z,13.80
2023-03-31T06:21:37.856Z,13.80
2023-03-31T06:24:04.807Z,14.00
2023-03-31T06:26:31.623Z,13.70
2023-03-31T06:28:58.385Z,13.70
2023-03-31T06:31:25.310Z,13.80
2023-03-31T06:33:52.917Z,13.70
2023-03-31T06:36:21.926Z,13.60
2023-03-31T06:38:50.075Z,13.40
2023-03-31T06:41:18.542Z,13.60
2023-03-31T06:43:45.503Z,13.60
2023-03-31T06:46:12.535Z,13.40
2023-03-31T06:48:39.524Z,13.70
2023-03-31T06:51:07.677Z,13.40
2023-03-31T06:53:35.054Z,13.30
2023-03-31T06:56:01.969Z,13.70
2023-03-31T06:58:31.398Z,13.60
2023-03-31T07:00:59.101Z,13.50
2023-03-31T07:03:26.209Z,13.70
2023-03-31T07:05:54.318Z,13.50
2023-03-31T07:08:21.633Z,13.40
2023-03-31T07:10:50.229Z,13.50
2023-03-31T07:13:17.920Z,13.30
2023-03-31T07:15:47.565Z,13.50
2023-03-31T07:18:15.807Z,13.60
2023-03-31T07:20:43.301Z,13.60
2023-03-31T07:23:10.068Z,13.50
2023-03-31T07:25:36.886Z,13.40
2023-03-31T07:28:05.067Z,13.50
2023-03-31T07:30:32.263Z,13.50
2023-03-31T07:32:59.186Z,13.50
2023-03-31T07:35:25.974Z,13.40
2023-03-31T07:37:52.788Z,13.50
2023-03-31T07:40:25.941Z,13.60
2023-03-31T07:42:53.637Z,13.60
2023-03-31T07:45:22.208Z,13.50
2023-03-31T07:47:49.566Z,13.50
2023-03-31T07:50:16.767Z,13.60
2023-03-31T07:52:46.303Z,13.60
2023-03-31T07:55:14.368Z,13.60
2023-03-31T07:57:42.155Z,13.70
2023-03-31T08:00:12.384Z,13.70
2023-03-31T08:02:42.741Z,13.50
2023-03-31T08:05:11.992Z,13.60
2023-03-31T08:07:40.108Z,13.70
2023-03-31T08:10:09.600Z,13.40
2023-03-31T08:12:36.542Z,13.60
2023-03-31T08:15:04.478Z,13.60
2023-03-31T08:17:31.455Z,13.50
2023-03-31T08:20:01.631Z,13.50
2023-03-31T08:22:30.701Z,13.50
2023-03-31T08:24:57.394Z,13.80
2023-03-31T08:27:26.093Z,13.60
2023-03-31T08:29:52.903Z,13.60
2023-03-31T08:32:23.383Z,13.70
2023-03-31T08:34:50.528Z,13.80
2023-03-31T08:37:17.344Z,13.80
2023-03-31T08:39:44.044Z,13.60
2023-03-31T08:42:26.267Z,13.90
2023-03-31T08:45:19.345Z,13.90
2023-03-31T08:47:49.024Z,13.80
2023-03-31T08:50:19.612Z,13.80
2023-03-31T08:52:53.408Z,13.70
2023-03-31T08:55:29.426Z,13.70
2023-03-31T08:58:03.799Z,13.90
2023-03-31T09:00:41.234Z,13.90
2023-03-31T09:03:31.660Z,13.90
2023-03-31T09:06:06.483Z,14.10
2023-03-31T09:08:38.563Z,14.30
2023-03-31T09:11:12.204Z,13.80
2023-03-31T09:14:00.460Z,14.20
2023-03-31T09:16:55.899Z,14.30
2023-03-31T09:19:49.743Z,14.20
2023-03-31T09:22:24.247Z,14.30
2023-03-31T09:25:27.213Z,14.60
2023-03-31T09:27:57.156Z,14.50
2023-03-31T09:30:30.033Z,14.70
2023-03-31T09:33:34.165Z,14.50
2023-03-31T09:36:02.988Z,14.60
2023-03-31T09:38:31.117Z,14.60
2023-03-31T09:40:59.925Z,14.80
2023-03-31T09:43:29.090Z,14.80
2023-03-31T09:48:30.550Z,14.80
2023-03-31T09:51:03.970Z,15.10
2023-03-31T09:53:52.731Z,15.10
2023-03-31T09:56:42.071Z,15.00
2023-03-31T09:59:15.851Z,15.30
2023-03-31T10:01:45.611Z,15.00
2023-03-31T10:04:21.828Z,15.00
2023-03-31T10:06:49.179Z,15.20
2023-03-31T10:09:17.123Z,15.30
2023-03-31T10:12:17.485Z,14.90
2023-03-31T10:14:50.576Z,15.10
2023-03-31T10:17:23.363Z,15.10
2023-03-31T10:19:59.053Z,15.30
2023-03-31T10:22:31.186Z,15.30
2023-03-31T10:25:14.519Z,15.60
2023-03-31T10:27:42.432Z,15.40
2023-03-31T10:30:12.738Z,15.40
2023-03-31T10:32:43.205Z,15.60
2023-03-31T10:35:27.621Z,15.80
2023-03-31T10:38:13.533Z,15.60
2023-03-31T10:40:53.108Z,15.70
2023-03-31T10:43:33.969Z,15.60
2023-03-31T10:46:01.319Z,15.50
2023-03-31T10:48:31.210Z,15.50
2023-03-31T10:51:24.696Z,15.50
2023-03-31T10:53:54.237Z,15.50
2023-03-31T10:56:35.154Z,15.30
2023-03-31T10:59:23.538Z,15.50
2023-03-31T11:02:28.205Z,15.60
2023-03-31T11:05:25.332Z,15.60
2023-03-31T11:08:13.618Z,15.70
2023-03-31T11:10:59.105Z,15.70
2023-03-31T11:13:55.753Z,16.00
2023-03-31T11:16:41.680Z,16.20
2023-03-31T11:19:17.693Z,16.10
2023-03-31T11:21:56.311Z,16.10
2023-03-31T11:24:32.870Z,16.40
2023-03-31T11:27:14.648Z,16.30
2023-03-31T11:29:48.732Z,16.50
2023-03-31T11:32:32.430Z,16.60
2023-03-31T11:35:21.334Z,16.50
2023-03-31T11:38:11.705Z,16.20
2023-03-31T11:40:56.917Z,15.80
2023-03-31T11:43:44.636Z,15.30
2023-03-31T11:46:23.030Z,15.30
2023-03-31T11:49:22.741Z,15.10
2023-03-31T11:52:14.442Z,14.90
2023-03-31T11:54:47.067Z,14.70
2023-03-31T11:57:29.323Z,14.80
2023-03-31T12:00:07.298Z,15.00
2023-03-31T12:03:02.233Z,14.80
2023-03-31T12:05:33.130Z,14.80
2023-03-31T12:08:05.951Z,14.80
2023-03-31T12:10:43.543Z,15.10
2023-03-31T12:13:31.749Z,15.00
2023-03-31T12:16:22.184Z,15.10
2023-03-31T12:19:23.117Z,15.40
2023-03-31T12:22:17.574Z,15.40
2023-03-31T12:24:44.591Z,15.70
2023-03-31T12:27:39.046Z,15.50
2023-03-31T12:30:06.279Z,15.50
2023-03-31T12:32:37.539Z,15.50
2023-03-31T12:35:06.827Z,15.60
2023-03-31T12:38:14.961Z,15.60
2023-03-31T12:41:01.712Z,15.70
2023-03-31T12:43:28.384Z,15.70
2023-03-31T12:46:04.531Z,15.80
2023-03-31T12:48:49.512Z,15.80
2023-03-31T12:51:31.075Z,16.00
2023-03-31T12:54:39.073Z,15.90
2023-03-31T12:57:23.955Z,15.80
2023-03-31T13:00:12.758Z,15.40
2023-03-31T13:02:43.204Z,15.70
2023-03-31T13:05:36.182Z,15.70
2023-03-31T13:08:10.464Z,15.80
2023-03-31T13:10:59.243Z,15.50
2023-03-31T13:13:26.971Z,15.60
2023-03-31T13:15:56.582Z,15.60
2023-03-31T13:18:24.616Z,15.50
2023-03-31T13:21:00.194Z,15.50
2023-03-31T13:23:34.285Z,15.50
2023-03-31T13:26:01.595Z,15.60
2023-03-31T13:28:33.292Z,15.60
2023-03-31T13:31:09.199Z,15.90
2023-03-31T13:33:46.912Z,15.90
2023-03-31T13:36:36.402Z,16.00
2023-03-31T13:39:12.955Z,15.90
2023-03-31T13:42:19.629Z,16.00
2023-03-31T13:44:52.877Z,16.00
2023-03-31T13:47:51.379Z,15.90
2023-03-31T13:50:36.073Z,15.80
2023-03-31T13:53:32.440Z,15.70
2023-03-31T13:56:09.914Z,15.80
2023-03-31T13:59:07.571Z,16.00
2023-03-31T14:01:46.393Z,16.00
2023-03-31T14:04:35.557Z,16.30
2023-03-31T14:07:20.318Z,16.20
2023-03-31T14:09:49.905Z,16.30
2023-03-31T14:12:30.245Z,16.50
2023-03-31T14:14:57.408Z,16.30
2023-03-31T14:17:28.475Z,16.30
2023-03-31T14:20:22.429Z,16.40
2023-03-31T14:23:01.691Z,16.40
2023-03-31T14:25:46.308Z,16.30
2023-03-31T14:28:18.727Z,16.40
2023-03-31T14:31:13.407Z,16.60
2023-03-31T14:34:05.367Z,16.40
2023-03-31T14:36:41.683Z,16.50
2023-03-31T14:39:11.745Z,16.40
2023-03-31T14:41:38.507Z,16.70
2023-03-31T14:44:14.068Z,16.60
2023-03-31T14:46:40.857Z,16.40
2023-03-31T14:49:41.930Z,16.30
2023-03-31T14:52:23.466Z,16.40
2023-03-31T14:54:53.049Z,16.60
2023-03-31T14:57:25.623Z,16.20
2023-03-31T14:59:54.287Z,16.50
2023-03-31T15:02:32.815Z,16.40
2023-03-31T15:05:04.335Z,16.40
2023-03-31T15:07:31.530Z,16.30
2023-03-31T15:09:58.428Z,16.30
2023-03-31T15:12:26.042Z,16.30
2023-03-31T15:14:58.675Z,16.40
2023-03-31T15:17:30.154Z,16.40
2023-03-31T15:20:04.545Z,16.20
2023-03-31T15:22:31.520Z,16.20
2023-03-31T15:24:58.343Z,16.30
2023-03-31T15:27:37.976Z,16.30
2023-03-31T15:30:26.115Z,16.20
2023-03-31T15:32:56.835Z,16.40
2023-03-31T15:35:34.582Z,16.10
2023-03-31T15:38:05.131Z,15.90
2023-03-31T15:40:39.563Z,16.00
2023-03-31T15:43:20.238Z,16.00
2023-03-31T15:45:54.018Z,15.90
2023-03-31T15:48:28.712Z,15.50
2023-03-31T15:51:03.595Z,15.30
2023-03-31T15:53:32.445Z,15.40
2023-03-31T15:56:00.034Z,15.20
2023-03-31T15:58:47.436Z,15.20
2023-03-31T16:01:16.007Z,15.10
2023-03-31T16:03:45.691Z,15.30
2023-03-31T16:06:32.174Z,15.40
2023-03-31T16:09:08.171Z,15.30
2023-03-31T16:11:50.891Z,15.50
2023-03-31T16:14:29.224Z,15.20
2023-03-31T16:17:05.881Z,15.10
2023-03-31T16:19:43.218Z,15.10
2023-03-31T16:22:16.151Z,14.80
2023-03-31T16:24:42.987Z,15.00
2023-03-31T16:27:09.840Z,14.90
2023-03-31T16:29:37.977Z,14.80
2023-03-31T16:32:11.469Z,14.80
2023-03-31T16:35:00.649Z,14.70
2023-03-31T16:37:27.388Z,14.60
2023-03-31T16:39:54.836Z,14.70
2023-03-31T16:42:21.716Z,14.70
2023-03-31T16:44:59.927Z,14.50
2023-03-31T16:47:36.150Z,14.70
2023-03-31T16:50:07.187Z,14.70
2023-03-31T16:52:35.881Z,14.90
2023-03-31T16:55:02.860Z,15.00
2023-03-31T16:57:29.696Z,14.80
2023-03-31T16:59:58.887Z,14.90
2023-03-31T17:02:26.376Z,14.80
2023-03-31T17:04:56.580Z,15.00
2023-03-31T17:07:27.002Z,14.90
2023-03-31T17:09:53.835Z,14.80
2023-03-31T17:12:20.821Z,15.00
2023-03-31T17:14:47.536Z,14.60
2023-03-31T17:17:20.970Z,14.70
2023-03-31T17:19:51.580Z,14.50
2023-03-31T17:22:18.381Z,14.70
2023-03-31T17:24:45.244Z,14.90
2023-03-31T17:27:13.561Z,14.40
2023-03-31T17:29:40.378Z,14.70
2023-03-31T17:32:07.078Z,14.40
2023-03-31T17:34:33.852Z,14.50
2023-03-31T17:37:00.615Z,14.60
2023-03-31T17:39:27.661Z,14.70
2023-03-31T17:41:54.423Z,14.70
2023-03-31T17:44:21.216Z,14.40
2023-03-31T17:46:48.396Z,14.50
2023-03-31T17:49:15.213Z,14.50
2023-03-31T17:51:41.939Z,14.40
2023-03-31T17:54:08.661Z,14.20
2023-03-31T17:56:35.377Z,14.40
2023-03-31T17:59:02.382Z,14.30
2023-03-31T18:01:29.211Z,14.30
2023-03-31T18:03:56.903Z,14.40
2023-03-31T18:06:24.941Z,14.40
2023-03-31T18:08:51.616Z,14.30
2023-03-31T18:11:18.698Z,14.40
2023-03-31T18:13:46.142Z,14.40
2023-03-31T18:16:13.787Z,14.30
2023-03-31T18:18:41.682Z,14.40
2023-03-31T18:21:10.984Z,14.40
2023-03-31T18:23:38.400Z,14.40
2023-03-31T18:26:13.148Z,14.20
2023-03-31T18:28:40.827Z,13.80
2023-03-31T18:31:08.648Z,14.20
2023-03-31T18:33:36.122Z,14.10
2023-03-31T18:36:03.579Z,14.10
2023-03-31T18:38:30.478Z,14.20
2023-03-31T18:40:57.708Z,14.20
2023-03-31T18:43:25.224Z,14.20
2023-03-31T18:45:54.061Z,14.00
2023-03-31T18:48:22.332Z,13.80
2023-03-31T18:50:51.362Z,13.90
2023-03-31T18:53:19.312Z,13.80
2023-03-31T18:55:54.189Z,13.90
2023-03-31T18:58:21.133Z,13.80
2023-03-31T19:00:48.147Z,13.80
2023-03-31T19:03:15.060Z,13.90
2023-03-31T19:05:42.358Z,13.90
2023-03-31T19:08:09.196Z,13.90
2023-03-31T19:10:36.623Z,13.90
2023-03-31T19:13:03.628Z,13.90
2023-03-31T19:15:30.669Z,14.00
2023-03-31T19:17:57.638Z,13.80
2023-03-31T19:20:24.476Z,14.00
2023-03-31T19:22:52.092Z,13.90
2023-03-31T19:25:20.860Z,13.80
2023-03-31T19:27:47.862Z,13.70
2023-03-31T19:30:21.248Z,14.10
2023-03-31T19:32:49.025Z,14.00
2023-03-31T19:35:17.045Z,14.10
2023-03-31T19:37:44.609Z,13.90
2023-03-31T19:40:11.765Z,13.90
2023-03-31T19:42:38.717Z,13.70
2023-03-31T19:45:06.154Z,13.80
2023-03-31T19:47:32.904Z,14.10
2023-03-31T19:49:59.613Z,13.70
2023-03-31T19:52:26.493Z,13.70
2023-03-31T19:54:53.723Z,13.60
2023-03-31T19:57:20.586Z,13.90
2023-03-31T19:59:47.390Z,13.60
2023-03-31T20:02:14.703Z,13.70
2023-03-31T20:04:41.842Z,13.50
2023-03-31T20:07:09.689Z,13.90
2023-03-31T20:09:37.214Z,13.80
2023-03-31T20:12:04.216Z,13.60
2023-03-31T20:14:30.971Z,13.70
2023-03-31T20:17:00.813Z,13.80
2023-03-31T20:19:27.777Z,13.90
2023-03-31T20:21:56.017Z,14.00
2023-03-31T20:24:23.197Z,13.70
2023-03-31T20:26:49.999Z,13.70
2023-03-31T20:29:17.085Z,13.90
2023-03-31T20:31:44.025Z,13.90
2023-03-31T20:34:14.881Z,13.80
2023-03-31T20:36:43.161Z,13.70
2023-03-31T20:39:11.131Z,13.60
2023-03-31T20:41:38.577Z,13.80
2023-03-31T20:44:07.500Z,13.70
2023-03-31T20:46:34.556Z,13.60
2023-03-31T20:49:01.548Z,13.40
2023-03-31T20:51:32.406Z,13.60
2023-03-31T20:54:01.207Z,13.40
2023-03-31T20:56:34.177Z,13.50
2023-03-31T20:59:00.977Z,13.40
2023-03-31T21:01:30.882Z,13.40
2023-03-31T21:04:00.735Z,13.30
2023-03-31T21:06:29.915Z,13.60
2023-03-31T21:08:57.506Z,13.30
2023-03-31T21:11:25.229Z,13.30
2023-03-31T21:13:53.139Z,13.50
2023-03-31T21:16:20.825Z,13.20
2023-03-31T21:18:48.392Z,13.40
2023-03-31T21:21:19.325Z,13.40
2023-03-31T21:23:46.816Z,13.40
2023-03-31T21:26:15.690Z,13.50
2023-03-31T21:28:43.196Z,13.70
2023-03-31T21:31:09.993Z,13.50
2023-03-31T21:33:38.501Z,13.40
2023-03-31T21:36:13.371Z,13.40
2023-03-31T21:38:40.474Z,13.30
2023-03-31T21:41:09.950Z,13.20
2023-03-31T21:43:37.279Z,13.30
2023-03-31T21:46:04.539Z,13.30
2023-03-31T21:48:31.857Z,13.10
2023-03-31T21:51:00.700Z,13.20
2023-03-31T21:53:30.583Z,13.30
2023-03-31T21:55:58.176Z,13.10
2023-03-31T21:58:27.532Z,13.10
2023-03-31T22:01:00.352Z,13.00
2023-03-31T22:03:29.000Z,12.90
2023-03-31T22:05:56.657Z,13.00
2023-03-31T22:08:24.104Z,13.10
2023-03-31T22:10:51.916Z,13.00
2023-03-31T22:13:19.710Z,13.20
2023-03-31T22:15:46.668Z,13.10
2023-03-31T22:18:13.416Z,13.10
2023-03-31T22:20:40.963Z,13.20
2023-03-31T22:23:07.722Z,12.90
2023-03-31T22:25:34.515Z,13.20
2023-03-31T22:28:01.810Z,13.30
2023-03-31T22:30:28.674Z,13.20
2023-03-31T22:32:55.551Z,13.20
2023-03-31T22:35:24.212Z,13.00
2023-03-31T22:37:51.210Z,13.20
2023-03-31T22:40:18.151Z,13.20
2023-03-31T22:42:44.926Z,13.30
2023-03-31T22:45:11.619Z,12.90
2023-03-31T22:47:38.435Z,13.30
2023-03-31T22:50:06.044Z,13.30
2023-03-31T22:52:32.786Z,13.10
2023-03-31T22:54:59.527Z,13.10
2023-03-31T22:57:27.674Z,12.90
2023-03-31T22:59:54.546Z,13.10
2023-03-31T23:02:21.473Z,13.30
2023-03-31T23:04:48.269Z,13.20
2023-03-31T23:07:15.868Z,13.00
2023-03-31T23:09:42.697Z,12.90
2023-03-31T23:12:09.456Z,13.00
2023-03-31T23:14:36.291Z,12.90
2023-03-31T23:17:03.128Z,13.30
2023-03-31T23:19:29.912Z,13.10
2023-03-31T23:21:58.336Z,12.90
2023-03-31T23:24:25.313Z,12.90
2023-03-31T23:26:52.721Z,13.00
2023-03-31T23:29:19.478Z,13.10
2023-03-31T23:31:46.300Z,13.00
2023-03-31T23:34:13.949Z,13.00
2023-03-31T23:36:40.827Z,13.00
2023-03-31T23:39:07.658Z,13.20
2023-03-31T23:41:34.449Z,13.20
2023-03-31T23:44:01.196Z,13.10
2023-03-31T23:46:28.173Z,13.30
2023-03-31T23:48:55.719Z,12.90
2023-03-31T23:51:22.507Z,13.00
2023-03-31T23:53:50.167Z,13.10
2023-03-31T23:56:17.055Z,13.00
2023-03-31T23:58:45.090Z,12.90
